sensor_id;sensor_type;location;lat;lon;timestamp;P1;durP1;ratioP1;P2;durP2;ratioP2
65583;SDS011;73032;43.592;1.458;2023-10-09T00:01:43;4.03;;;1.85;;
65583;SDS011;73032;43.592;1.458;2023-10-09T00:04:10;3.97;;;1.98;;
65583;SDS011;73032;43.592;1.458;2023-10-09T00:06:38;4.38;;;1.92;;
65583;SDS011;73032;43.592;1.458;2023-10-09T00:09:07;3.72;;;1.80;;
65583;SDS011;73032;43.592;1.458;2023-10-09T00:12:01;4.10;;;2.00;;
65583;SDS011;73032;43.592;1.458;2023-10-09T00:14:36;4.40;;;2.40;;
65583;SDS011;73032;43.592;1.458;2023-10-09T00:17:05;3.45;;;2.03;;
65583;SDS011;73032;43.592;1.458;2023-10-09T00:19:52;4.70;;;1.88;;
65583;SDS011;73032;43.592;1.458;2023-10-09T00:22:21;4.75;;;2.05;;
65583;SDS011;73032;43.592;1.458;2023-10-09T00:24:51;3.87;;;2.00;;
65583;SDS011;73032;43.592;1.458;2023-10-09T00:27:43;3.90;;;1.92;;
65583;SDS011;73032;43.592;1.458;2023-10-09T00:30:13;5.13;;;2.28;;
65583;SDS011;73032;43.592;1.458;2023-10-09T00:32:45;5.82;;;2.15;;
65583;SDS011;73032;43.592;1.458;2023-10-09T00:35:25;4.33;;;2.07;;
65583;SDS011;73032;43.592;1.458;2023-10-09T00:38:10;3.50;;;1.90;;
65583;SDS011;73032;43.592;1.458;2023-10-09T00:40:46;4.78;;;2.15;;
65583;SDS011;73032;43.592;1.458;2023-10-09T00:43:19;4.88;;;2.17;;
65583;SDS011;73032;43.592;1.458;2023-10-09T00:45:46;4.95;;;2.00;;
65583;SDS011;73032;43.592;1.458;2023-10-09T00:48:13;5.47;;;2.00;;
65583;SDS011;73032;43.592;1.458;2023-10-09T00:50:57;5.10;;;2.15;;
65583;SDS011;73032;43.592;1.458;2023-10-09T00:53:27;6.00;;;2.00;;
65583;SDS011;73032;43.592;1.458;2023-10-09T00:56:02;4.88;;;1.80;;
65583;SDS011;73032;43.592;1.458;2023-10-09T00:58:56;3.60;;;1.73;;
65583;SDS011;73032;43.592;1.458;2023-10-09T01:01:33;3.80;;;1.95;;
65583;SDS011;73032;43.592;1.458;2023-10-09T01:04:03;4.65;;;1.90;;
65583;SDS011;73032;43.592;1.458;2023-10-09T01:06:44;4.35;;;1.83;;
65583;SDS011;73032;43.592;1.458;2023-10-09T01:09:12;4.45;;;2.03;;
65583;SDS011;73032;43.592;1.458;2023-10-09T01:11:46;3.67;;;2.13;;
65583;SDS011;73032;43.592;1.458;2023-10-09T01:14:29;4.68;;;1.70;;
65583;SDS011;73032;43.592;1.458;2023-10-09T01:17:03;4.00;;;1.98;;
65583;SDS011;73032;43.592;1.458;2023-10-09T01:19:45;5.70;;;1.95;;
65583;SDS011;73032;43.592;1.458;2023-10-09T01:22:13;3.08;;;1.65;;
65583;SDS011;73032;43.592;1.458;2023-10-09T01:24:41;4.85;;;1.92;;
65583;SDS011;73032;43.592;1.458;2023-10-09T01:27:08;4.80;;;2.25;;
65583;SDS011;73032;43.592;1.458;2023-10-09T01:29:42;3.72;;;1.88;;
65583;SDS011;73032;43.592;1.458;2023-10-09T01:32:10;3.63;;;1.80;;
65583;SDS011;73032;43.592;1.458;2023-10-09T01:34:43;4.25;;;1.83;;
65583;SDS011;73032;43.592;1.458;2023-10-09T01:37:13;2.92;;;1.60;;
65583;SDS011;73032;43.592;1.458;2023-10-09T01:39:56;3.58;;;1.80;;
65583;SDS011;73032;43.592;1.458;2023-10-09T01:42:43;4.22;;;1.92;;
65583;SDS011;73032;43.592;1.458;2023-10-09T01:45:13;4.00;;;1.90;;
65583;SDS011;73032;43.592;1.458;2023-10-09T01:47:46;3.20;;;1.70;;
65583;SDS011;73032;43.592;1.458;2023-10-09T01:50:20;6.03;;;2.03;;
65583;SDS011;73032;43.592;1.458;2023-10-09T01:52:53;3.10;;;1.63;;
65583;SDS011;73032;43.592;1.458;2023-10-09T01:55:20;6.45;;;2.00;;
65583;SDS011;73032;43.592;1.458;2023-10-09T01:58:01;3.90;;;2.00;;
65583;SDS011;73032;43.592;1.458;2023-10-09T02:00:56;5.88;;;2.10;;
65583;SDS011;73032;43.592;1.458;2023-10-09T02:03:23;3.85;;;2.00;;
65583;SDS011;73032;43.592;1.458;2023-10-09T02:05:51;3.15;;;1.80;;
65583;SDS011;73032;43.592;1.458;2023-10-09T02:08:20;4.22;;;2.15;;
65583;SDS011;73032;43.592;1.458;2023-10-09T02:11:02;4.38;;;1.88;;
65583;SDS011;73032;43.592;1.458;2023-10-09T02:13:29;3.42;;;1.90;;
65583;SDS011;73032;43.592;1.458;2023-10-09T02:15:56;3.90;;;2.00;;
65583;SDS011;73032;43.592;1.458;2023-10-09T02:18:39;3.63;;;1.83;;
65583;SDS011;73032;43.592;1.458;2023-10-09T02:21:18;4.10;;;2.03;;
65583;SDS011;73032;43.592;1.458;2023-10-09T02:23:58;3.78;;;1.90;;
65583;SDS011;73032;43.592;1.458;2023-10-09T02:26:29;4.35;;;1.88;;
65583;SDS011;73032;43.592;1.458;2023-10-09T02:29:04;4.53;;;2.35;;
65583;SDS011;73032;43.592;1.458;2023-10-09T02:31:41;6.50;;;2.10;;
65583;SDS011;73032;43.592;1.458;2023-10-09T02:34:12;5.72;;;2.38;;
65583;SDS011;73032;43.592;1.458;2023-10-09T02:36:42;8.60;;;2.00;;
65583;SDS011;73032;43.592;1.458;2023-10-09T02:39:10;3.70;;;1.90;;
65583;SDS011;73032;43.592;1.458;2023-10-09T02:41:56;3.28;;;1.77;;
65583;SDS011;73032;43.592;1.458;2023-10-09T02:44:49;5.75;;;2.10;;
65583;SDS011;73032;43.592;1.458;2023-10-09T02:47:18;3.78;;;1.98;;
65583;SDS011;73032;43.592;1.458;2023-10-09T02:49:56;3.63;;;1.92;;
65583;SDS011;73032;43.592;1.458;2023-10-09T02:52:46;3.13;;;1.90;;
65583;SDS011;73032;43.592;1.458;2023-10-09T02:55:19;4.28;;;2.00;;
65583;SDS011;73032;43.592;1.458;2023-10-09T02:57:54;3.63;;;2.10;;
65583;SDS011;73032;43.592;1.458;2023-10-09T03:00:36;4.00;;;2.10;;
65583;SDS011;73032;43.592;1.458;2023-10-09T03:03:03;4.38;;;2.00;;
65583;SDS011;73032;43.592;1.458;2023-10-09T03:05:33;4.10;;;2.00;;
65583;SDS011;73032;43.592;1.458;2023-10-09T03:08:03;4.25;;;1.90;;
65583;SDS011;73032;43.592;1.458;2023-10-09T03:10:29;5.88;;;2.55;;
65583;SDS011;73032;43.592;1.458;2023-10-09T03:12:56;3.47;;;1.90;;
65583;SDS011;73032;43.592;1.458;2023-10-09T03:15:26;4.35;;;2.10;;
65583;SDS011;73032;43.592;1.458;2023-10-09T03:17:55;3.83;;;1.90;;
65583;SDS011;73032;43.592;1.458;2023-10-09T03:20:22;4.53;;;2.13;;
65583;SDS011;73032;43.592;1.458;2023-10-09T03:22:49;6.70;;;3.35;;
65583;SDS011;73032;43.592;1.458;2023-10-09T03:25:16;8.50;;;2.95;;
65583;SDS011;73032;43.592;1.458;2023-10-09T03:27:43;6.28;;;2.97;;
65583;SDS011;73032;43.592;1.458;2023-10-09T03:30:16;6.05;;;3.00;;
65583;SDS011;73032;43.592;1.458;2023-10-09T03:32:53;4.95;;;2.75;;
65583;SDS011;73032;43.592;1.458;2023-10-09T03:35:21;5.18;;;2.65;;
65583;SDS011;73032;43.592;1.458;2023-10-09T03:37:56;6.38;;;3.42;;
65583;SDS011;73032;43.592;1.458;2023-10-09T03:40:27;7.85;;;3.17;;
65583;SDS011;73032;43.592;1.458;2023-10-09T03:42:54;5.32;;;3.30;;
65583;SDS011;73032;43.592;1.458;2023-10-09T03:45:21;5.05;;;2.80;;
65583;SDS011;73032;43.592;1.458;2023-10-09T03:47:55;4.20;;;2.22;;
65583;SDS011;73032;43.592;1.458;2023-10-09T03:50:35;5.22;;;2.20;;
65583;SDS011;73032;43.592;1.458;2023-10-09T03:53:03;4.45;;;2.10;;
65583;SDS011;73032;43.592;1.458;2023-10-09T03:58:05;6.18;;;2.60;;
65583;SDS011;73032;43.592;1.458;2023-10-09T04:00:32;4.65;;;2.30;;
65583;SDS011;73032;43.592;1.458;2023-10-09T04:03:07;4.75;;;2.17;;
65583;SDS011;73032;43.592;1.458;2023-10-09T04:08:11;5.33;;;2.23;;
65583;SDS011;73032;43.592;1.458;2023-10-09T04:10:55;7.32;;;2.35;;
65583;SDS011;73032;43.592;1.458;2023-10-09T04:13:27;4.53;;;2.20;;
65583;SDS011;73032;43.592;1.458;2023-10-09T04:16:03;3.35;;;2.08;;
65583;SDS011;73032;43.592;1.458;2023-10-09T04:18:37;4.35;;;2.15;;
65583;SDS011;73032;43.592;1.458;2023-10-09T04:21:06;5.30;;;2.17;;
65583;SDS011;73032;43.592;1.458;2023-10-09T04:23:46;4.03;;;2.10;;
65583;SDS011;73032;43.592;1.458;2023-10-09T04:26:31;3.83;;;2.03;;
65583;SDS011;73032;43.592;1.458;2023-10-09T04:29:01;4.32;;;2.15;;
65583;SDS011;73032;43.592;1.458;2023-10-09T04:31:28;4.22;;;2.28;;
65583;SDS011;73032;43.592;1.458;2023-10-09T04:33:58;4.65;;;2.40;;
65583;SDS011;73032;43.592;1.458;2023-10-09T04:36:44;6.72;;;2.10;;
65583;SDS011;73032;43.592;1.458;2023-10-09T04:39:16;4.05;;;2.40;;
65583;SDS011;73032;43.592;1.458;2023-10-09T04:42:02;4.95;;;2.40;;
65583;SDS011;73032;43.592;1.458;2023-10-09T04:44:47;8.02;;;2.50;;
65583;SDS011;73032;43.592;1.458;2023-10-09T04:47:40;4.03;;;2.05;;
65583;SDS011;73032;43.592;1.458;2023-10-09T04:50:16;4.70;;;2.15;;
65583;SDS011;73032;43.592;1.458;2023-10-09T04:52:58;6.88;;;2.33;;
65583;SDS011;73032;43.592;1.458;2023-10-09T04:55:44;5.50;;;2.25;;
65583;SDS011;73032;43.592;1.458;2023-10-09T04:58:21;6.43;;;2.50;;
65583;SDS011;73032;43.592;1.458;2023-10-09T05:00:54;4.78;;;2.08;;
65583;SDS011;73032;43.592;1.458;2023-10-09T05:03:23;7.38;;;2.15;;
65583;SDS011;73032;43.592;1.458;2023-10-09T05:05:56;4.68;;;2.38;;
65583;SDS011;73032;43.592;1.458;2023-10-09T05:08:26;4.53;;;2.15;;
65583;SDS011;73032;43.592;1.458;2023-10-09T05:13:22;6.05;;;2.30;;
65583;SDS011;73032;43.592;1.458;2023-10-09T05:18:53;8.10;;;2.20;;
65583;SDS011;73032;43.592;1.458;2023-10-09T05:21:37;4.90;;;2.10;;
65583;SDS011;73032;43.592;1.458;2023-10-09T05:24:08;8.63;;;2.47;;
65583;SDS011;73032;43.592;1.458;2023-10-09T05:29:25;3.53;;;1.83;;
65583;SDS011;73032;43.592;1.458;2023-10-09T05:31:58;4.47;;;2.08;;
65583;SDS011;73032;43.592;1.458;2023-10-09T05:34:39;5.95;;;2.08;;
65583;SDS011;73032;43.592;1.458;2023-10-09T05:37:34;8.05;;;2.20;;
65583;SDS011;73032;43.592;1.458;2023-10-09T05:40:04;3.83;;;2.10;;
65583;SDS011;73032;43.592;1.458;2023-10-09T05:42:45;5.25;;;2.45;;
65583;SDS011;73032;43.592;1.458;2023-10-09T05:45:24;4.60;;;1.95;;
65583;SDS011;73032;43.592;1.458;2023-10-09T05:48:11;4.53;;;2.20;;
65583;SDS011;73032;43.592;1.458;2023-10-09T05:50:40;5.25;;;1.92;;
65583;SDS011;73032;43.592;1.458;2023-10-09T05:53:22;4.63;;;2.10;;
65583;SDS011;73032;43.592;1.458;2023-10-09T05:56:21;6.43;;;2.35;;
65583;SDS011;73032;43.592;1.458;2023-10-09T05:59:06;4.72;;;2.30;;
65583;SDS011;73032;43.592;1.458;2023-10-09T06:01:51;6.18;;;2.00;;
65583;SDS011;73032;43.592;1.458;2023-10-09T06:04:33;4.30;;;2.10;;
65583;SDS011;73032;43.592;1.458;2023-10-09T06:07:16;5.65;;;2.13;;
65583;SDS011;73032;43.592;1.458;2023-10-09T06:09:49;4.75;;;2.20;;
65583;SDS011;73032;43.592;1.458;2023-10-09T06:12:23;4.35;;;1.83;;
65583;SDS011;73032;43.592;1.458;2023-10-09T06:14:59;5.85;;;1.98;;
65583;SDS011;73032;43.592;1.458;2023-10-09T06:17:57;9.98;;;2.30;;
65583;SDS011;73032;43.592;1.458;2023-10-09T06:20:44;5.93;;;2.30;;
65583;SDS011;73032;43.592;1.458;2023-10-09T06:23:34;5.00;;;2.25;;
65583;SDS011;73032;43.592;1.458;2023-10-09T06:26:19;7.15;;;2.17;;
65583;SDS011;73032;43.592;1.458;2023-10-09T06:28:52;3.95;;;2.00;;
65583;SDS011;73032;43.592;1.458;2023-10-09T06:31:39;5.50;;;2.00;;
65583;SDS011;73032;43.592;1.458;2023-10-09T06:34:27;6.80;;;2.38;;
65583;SDS011;73032;43.592;1.458;2023-10-09T06:37:02;6.22;;;2.15;;
65583;SDS011;73032;43.592;1.458;2023-10-09T06:39:55;4.65;;;2.35;;
65583;SDS011;73032;43.592;1.458;2023-10-09T06:42:26;4.00;;;1.92;;
65583;SDS011;73032;43.592;1.458;2023-10-09T06:45:00;9.13;;;2.25;;
65583;SDS011;73032;43.592;1.458;2023-10-09T06:47:32;4.75;;;2.28;;
65583;SDS011;73032;43.592;1.458;2023-10-09T06:52:54;5.40;;;2.17;;
65583;SDS011;73032;43.592;1.458;2023-10-09T06:55:24;5.55;;;2.00;;
65583;SDS011;73032;43.592;1.458;2023-10-09T06:58:01;4.53;;;2.22;;
65583;SDS011;73032;43.592;1.458;2023-10-09T07:00:39;10.35;;;2.58;;
65583;SDS011;73032;43.592;1.458;2023-10-09T07:03:27;6.03;;;2.40;;
65583;SDS011;73032;43.592;1.458;2023-10-09T07:06:09;4.75;;;2.00;;
65583;SDS011;73032;43.592;1.458;2023-10-09T07:08:51;4.10;;;2.20;;
65583;SDS011;73032;43.592;1.458;2023-10-09T07:11:33;6.95;;;2.50;;
65583;SDS011;73032;43.592;1.458;2023-10-09T07:14:19;6.63;;;2.40;;
65583;SDS011;73032;43.592;1.458;2023-10-09T07:17:07;4.75;;;1.98;;
65583;SDS011;73032;43.592;1.458;2023-10-09T07:20:10;4.65;;;2.13;;
65583;SDS011;73032;43.592;1.458;2023-10-09T07:22:41;7.70;;;2.38;;
65583;SDS011;73032;43.592;1.458;2023-10-09T07:25:40;4.72;;;2.15;;
65583;SDS011;73032;43.592;1.458;2023-10-09T07:28:09;7.85;;;2.13;;
65583;SDS011;73032;43.592;1.458;2023-10-09T07:31:06;6.50;;;2.15;;
65583;SDS011;73032;43.592;1.458;2023-10-09T07:33:36;6.97;;;2.30;;
65583;SDS011;73032;43.592;1.458;2023-10-09T07:36:21;13.32;;;2.90;;
65583;SDS011;73032;43.592;1.458;2023-10-09T07:39:05;6.63;;;2.13;;
65583;SDS011;73032;43.592;1.458;2023-10-09T07:41:40;9.95;;;2.58;;
65583;SDS011;73032;43.592;1.458;2023-10-09T07:44:28;6.85;;;2.70;;
65583;SDS011;73032;43.592;1.458;2023-10-09T07:47:03;7.90;;;2.50;;
65583;SDS011;73032;43.592;1.458;2023-10-09T07:49:49;7.38;;;2.55;;
65583;SDS011;73032;43.592;1.458;2023-10-09T07:52:20;8.27;;;2.95;;
65583;SDS011;73032;43.592;1.458;2023-10-09T07:54:50;14.10;;;2.85;;
65583;SDS011;73032;43.592;1.458;2023-10-09T07:57:20;11.03;;;2.70;;
65583;SDS011;73032;43.592;1.458;2023-10-09T07:59:53;10.45;;;2.55;;
65583;SDS011;73032;43.592;1.458;2023-10-09T08:02:28;10.43;;;2.92;;
65583;SDS011;73032;43.592;1.458;2023-10-09T08:05:01;9.85;;;2.65;;
65583;SDS011;73032;43.592;1.458;2023-10-09T08:07:33;12.63;;;2.92;;
65583;SDS011;73032;43.592;1.458;2023-10-09T08:10:22;8.30;;;2.50;;
65583;SDS011;73032;43.592;1.458;2023-10-09T08:12:49;14.40;;;3.10;;
65583;SDS011;73032;43.592;1.458;2023-10-09T08:15:17;13.75;;;3.25;;
65583;SDS011;73032;43.592;1.458;2023-10-09T08:17:49;10.10;;;2.70;;
65583;SDS011;73032;43.592;1.458;2023-10-09T08:20:21;7.13;;;2.55;;
65583;SDS011;73032;43.592;1.458;2023-10-09T08:23:17;8.90;;;2.60;;
65583;SDS011;73032;43.592;1.458;2023-10-09T08:26:02;7.70;;;3.08;;
65583;SDS011;73032;43.592;1.458;2023-10-09T08:28:41;11.40;;;3.03;;
65583;SDS011;73032;43.592;1.458;2023-10-09T08:31:11;7.15;;;2.65;;
65583;SDS011;73032;43.592;1.458;2023-10-09T08:33:57;11.23;;;2.97;;
65583;SDS011;73032;43.592;1.458;2023-10-09T08:36:27;11.32;;;2.88;;
65583;SDS011;73032;43.592;1.458;2023-10-09T08:38:58;8.95;;;2.92;;
65583;SDS011;73032;43.592;1.458;2023-10-09T08:41:27;7.43;;;2.42;;
65583;SDS011;73032;43.592;1.458;2023-10-09T08:43:57;13.38;;;2.92;;
65583;SDS011;73032;43.592;1.458;2023-10-09T08:46:24;8.60;;;2.80;;
65583;SDS011;73032;43.592;1.458;2023-10-09T08:48:56;12.52;;;2.75;;
65583;SDS011;73032;43.592;1.458;2023-10-09T08:51:26;11.57;;;2.93;;
65583;SDS011;73032;43.592;1.458;2023-10-09T08:53:54;9.27;;;2.65;;
65583;SDS011;73032;43.592;1.458;2023-10-09T08:56:22;6.60;;;3.15;;
65583;SDS011;73032;43.592;1.458;2023-10-09T09:01:20;5.88;;;2.17;;
65583;SDS011;73032;43.592;1.458;2023-10-09T09:03:48;4.97;;;2.55;;
65583;SDS011;73032;43.592;1.458;2023-10-09T09:06:19;6.22;;;2.45;;
65583;SDS011;73032;43.592;1.458;2023-10-09T09:08:46;6.22;;;2.58;;
65583;SDS011;73032;43.592;1.458;2023-10-09T09:11:14;8.98;;;3.00;;
65583;SDS011;73032;43.592;1.458;2023-10-09T09:14:02;6.13;;;2.50;;
65583;SDS011;73032;43.592;1.458;2023-10-09T09:16:34;7.88;;;2.80;;
65583;SDS011;73032;43.592;1.458;2023-10-09T09:19:06;7.13;;;2.63;;
65583;SDS011;73032;43.592;1.458;2023-10-09T09:21:38;14.70;;;3.53;;
65583;SDS011;73032;43.592;1.458;2023-10-09T09:26:41;6.82;;;2.33;;
65583;SDS011;73032;43.592;1.458;2023-10-09T09:29:15;5.35;;;2.60;;
65583;SDS011;73032;43.592;1.458;2023-10-09T09:31:53;6.70;;;2.72;;
65583;SDS011;73032;43.592;1.458;2023-10-09T09:34:21;7.15;;;2.53;;
65583;SDS011;73032;43.592;1.458;2023-10-09T09:36:55;6.25;;;2.42;;
65583;SDS011;73032;43.592;1.458;2023-10-09T09:39:24;7.35;;;2.78;;
65583;SDS011;73032;43.592;1.458;2023-10-09T09:42:10;7.60;;;2.50;;
65583;SDS011;73032;43.592;1.458;2023-10-09T09:44:41;6.40;;;2.60;;
65583;SDS011;73032;43.592;1.458;2023-10-09T09:47:13;8.25;;;2.42;;
65583;SDS011;73032;43.592;1.458;2023-10-09T09:49:50;5.78;;;2.22;;
65583;SDS011;73032;43.592;1.458;2023-10-09T09:52:30;5.25;;;2.30;;
65583;SDS011;73032;43.592;1.458;2023-10-09T09:55:07;6.85;;;2.33;;
65583;SDS011;73032;43.592;1.458;2023-10-09T09:57:40;8.25;;;2.63;;
65583;SDS011;73032;43.592;1.458;2023-10-09T10:00:11;7.00;;;2.40;;
65583;SDS011;73032;43.592;1.458;2023-10-09T10:02:54;5.97;;;2.30;;
65583;SDS011;73032;43.592;1.458;2023-10-09T10:05:25;12.65;;;2.53;;
65583;SDS011;73032;43.592;1.458;2023-10-09T10:07:57;7.85;;;2.35;;
65583;SDS011;73032;43.592;1.458;2023-10-09T10:10:35;7.70;;;2.60;;
65583;SDS011;73032;43.592;1.458;2023-10-09T10:16:25;5.55;;;2.50;;
65583;SDS011;73032;43.592;1.458;2023-10-09T10:19:01;4.78;;;2.22;;
65583;SDS011;73032;43.592;1.458;2023-10-09T10:21:44;6.07;;;2.40;;
65583;SDS011;73032;43.592;1.458;2023-10-09T10:29:35;5.25;;;2.47;;
65583;SDS011;73032;43.592;1.458;2023-10-09T10:32:05;3.22;;;2.10;;
65583;SDS011;73032;43.592;1.458;2023-10-09T10:34:53;7.18;;;2.45;;
65583;SDS011;73032;43.592;1.458;2023-10-09T10:40:48;4.72;;;2.60;;
65583;SDS011;73032;43.592;1.458;2023-10-09T10:43:23;7.35;;;2.80;;
65583;SDS011;73032;43.592;1.458;2023-10-09T10:46:14;5.00;;;2.42;;
65583;SDS011;73032;43.592;1.458;2023-10-09T10:48:42;5.22;;;2.58;;
65583;SDS011;73032;43.592;1.458;2023-10-09T10:51:13;8.32;;;2.63;;
65583;SDS011;73032;43.592;1.458;2023-10-09T10:53:50;6.75;;;2.58;;
65583;SDS011;73032;43.592;1.458;2023-10-09T10:56:24;5.93;;;2.60;;
65583;SDS011;73032;43.592;1.458;2023-10-09T10:59:02;5.10;;;2.70;;
65583;SDS011;73032;43.592;1.458;2023-10-09T11:01:32;4.50;;;2.45;;
65583;SDS011;73032;43.592;1.458;2023-10-09T11:04:19;7.25;;;2.70;;
65583;SDS011;73032;43.592;1.458;2023-10-09T11:06:56;6.97;;;2.50;;
65583;SDS011;73032;43.592;1.458;2023-10-09T11:09:30;4.45;;;2.25;;
65583;SDS011;73032;43.592;1.458;2023-10-09T11:12:32;7.75;;;2.65;;
65583;SDS011;73032;43.592;1.458;2023-10-09T11:15:14;5.78;;;2.90;;
65583;SDS011;73032;43.592;1.458;2023-10-09T11:18:01;9.98;;;2.75;;
65583;SDS011;73032;43.592;1.458;2023-10-09T11:20:35;3.70;;;2.20;;
65583;SDS011;73032;43.592;1.458;2023-10-09T11:23:04;4.60;;;2.40;;
65583;SDS011;73032;43.592;1.458;2023-10-09T11:25:39;7.60;;;2.40;;
65583;SDS011;73032;43.592;1.458;2023-10-09T11:28:18;4.90;;;2.25;;
65583;SDS011;73032;43.592;1.458;2023-10-09T11:31:09;4.57;;;2.17;;
65583;SDS011;73032;43.592;1.458;2023-10-09T11:33:49;6.13;;;2.65;;
65583;SDS011;73032;43.592;1.458;2023-10-09T11:36:18;6.32;;;2.28;;
65583;SDS011;73032;43.592;1.458;2023-10-09T11:38:59;3.72;;;2.33;;
65583;SDS011;73032;43.592;1.458;2023-10-09T11:41:40;4.10;;;2.40;;
65583;SDS011;73032;43.592;1.458;2023-10-09T11:44:10;4.80;;;2.58;;
65583;SDS011;73032;43.592;1.458;2023-10-09T11:47:02;5.05;;;2.00;;
65583;SDS011;73032;43.592;1.458;2023-10-09T11:49:57;6.05;;;2.58;;
65583;SDS011;73032;43.592;1.458;2023-10-09T11:52:28;6.80;;;2.53;;
65583;SDS011;73032;43.592;1.458;2023-10-09T11:55:05;3.97;;;2.60;;
65583;SDS011;73032;43.592;1.458;2023-10-09T11:57:42;3.47;;;2.10;;
65583;SDS011;73032;43.592;1.458;2023-10-09T12:00:09;6.05;;;2.28;;
65583;SDS011;73032;43.592;1.458;2023-10-09T12:02:57;5.63;;;2.53;;
65583;SDS011;73032;43.592;1.458;2023-10-09T12:05:31;6.88;;;2.50;;
65583;SDS011;73032;43.592;1.458;2023-10-09T12:08:00;8.82;;;2.70;;
65583;SDS011;73032;43.592;1.458;2023-10-09T12:10:28;6.07;;;2.50;;
65583;SDS011;73032;43.592;1.458;2023-10-09T12:12:56;7.20;;;2.65;;
65583;SDS011;73032;43.592;1.458;2023-10-09T12:18:04;4.15;;;2.28;;
65583;SDS011;73032;43.592;1.458;2023-10-09T12:20:34;4.75;;;2.40;;
65583;SDS011;73032;43.592;1.458;2023-10-09T12:23:01;5.72;;;2.42;;
65583;SDS011;73032;43.592;1.458;2023-10-09T12:25:33;5.13;;;2.50;;
65583;SDS011;73032;43.592;1.458;2023-10-09T12:28:02;4.60;;;2.67;;
65583;SDS011;73032;43.592;1.458;2023-10-09T12:30:29;6.95;;;2.50;;
65583;SDS011;73032;43.592;1.458;2023-10-09T12:32:57;3.83;;;2.15;;
65583;SDS011;73032;43.592;1.458;2023-10-09T12:35:24;8.05;;;2.70;;
65583;SDS011;73032;43.592;1.458;2023-10-09T12:37:54;4.78;;;2.15;;
65583;SDS011;73032;43.592;1.458;2023-10-09T12:40:22;6.78;;;2.38;;
65583;SDS011;73032;43.592;1.458;2023-10-09T12:42:55;4.07;;;2.33;;
65583;SDS011;73032;43.592;1.458;2023-10-09T12:47:55;7.32;;;2.60;;
65583;SDS011;73032;43.592;1.458;2023-10-09T12:50:25;4.82;;;2.13;;
65583;SDS011;73032;43.592;1.458;2023-10-09T12:52:55;4.53;;;2.58;;
65583;SDS011;73032;43.592;1.458;2023-10-09T12:55:28;3.40;;;1.90;;
65583;SDS011;73032;43.592;1.458;2023-10-09T13:00:34;4.75;;;2.33;;
65583;SDS011;73032;43.592;1.458;2023-10-09T13:03:06;6.03;;;2.38;;
65583;SDS011;73032;43.592;1.458;2023-10-09T13:05:50;8.00;;;2.30;;
65583;SDS011;73032;43.592;1.458;2023-10-09T13:08:24;3.70;;;2.22;;
65583;SDS011;73032;43.592;1.458;2023-10-09T13:11:09;4.65;;;2.22;;
65583;SDS011;73032;43.592;1.458;2023-10-09T13:13:41;4.13;;;2.13;;
65583;SDS011;73032;43.592;1.458;2023-10-09T13:16:14;4.57;;;2.10;;
65583;SDS011;73032;43.592;1.458;2023-10-09T13:18:52;4.82;;;2.33;;
65583;SDS011;73032;43.592;1.458;2023-10-09T13:21:23;5.70;;;2.10;;
65583;SDS011;73032;43.592;1.458;2023-10-09T13:23:53;4.32;;;2.17;;
65583;SDS011;73032;43.592;1.458;2023-10-09T13:26:24;3.20;;;2.10;;
65583;SDS011;73032;43.592;1.458;2023-10-09T13:29:00;5.80;;;2.47;;
65583;SDS011;73032;43.592;1.458;2023-10-09T13:31:29;4.93;;;2.38;;
65583;SDS011;73032;43.592;1.458;2023-10-09T13:34:01;3.58;;;2.20;;
65583;SDS011;73032;43.592;1.458;2023-10-09T13:36:29;3.85;;;2.20;;
65583;SDS011;73032;43.592;1.458;2023-10-09T13:39:07;4.68;;;2.33;;
65583;SDS011;73032;43.592;1.458;2023-10-09T13:41:52;3.90;;;2.05;;
65583;SDS011;73032;43.592;1.458;2023-10-09T13:44:27;4.32;;;2.03;;
65583;SDS011;73032;43.592;1.458;2023-10-09T13:46:57;5.32;;;2.17;;
65583;SDS011;73032;43.592;1.458;2023-10-09T13:49:25;2.78;;;1.80;;
65583;SDS011;73032;43.592;1.458;2023-10-09T13:51:59;5.03;;;1.90;;
65583;SDS011;73032;43.592;1.458;2023-10-09T13:54:32;3.22;;;1.92;;
65583;SDS011;73032;43.592;1.458;2023-10-09T13:57:00;8.02;;;2.10;;
65583;SDS011;73032;43.592;1.458;2023-10-09T13:59:30;3.28;;;1.73;;
65583;SDS011;73032;43.592;1.458;2023-10-09T14:01:58;4.05;;;1.90;;
65583;SDS011;73032;43.592;1.458;2023-10-09T14:04:26;4.95;;;2.08;;
65583;SDS011;73032;43.592;1.458;2023-10-09T14:06:52;3.63;;;2.00;;
65583;SDS011;73032;43.592;1.458;2023-10-09T14:09:26;6.22;;;2.10;;
65583;SDS011;73032;43.592;1.458;2023-10-09T14:12:21;2.92;;;1.95;;
65583;SDS011;73032;43.592;1.458;2023-10-09T14:14:48;4.30;;;2.00;;
65583;SDS011;73032;43.592;1.458;2023-10-09T14:17:16;6.25;;;2.40;;
65583;SDS011;73032;43.592;1.458;2023-10-09T14:19:52;2.50;;;1.83;;
65583;SDS011;73032;43.592;1.458;2023-10-09T14:22:21;6.38;;;2.08;;
65583;SDS011;73032;43.592;1.458;2023-10-09T14:24:53;3.30;;;2.15;;
65583;SDS011;73032;43.592;1.458;2023-10-09T14:27:25;4.50;;;2.00;;
65583;SDS011;73032;43.592;1.458;2023-10-09T14:29:53;4.10;;;1.95;;
65583;SDS011;73032;43.592;1.458;2023-10-09T14:34:56;4.72;;;2.10;;
65583;SDS011;73032;43.592;1.458;2023-10-09T14:37:27;2.92;;;1.80;;
65583;SDS011;73032;43.592;1.458;2023-10-09T14:39:57;5.40;;;2.20;;
65583;SDS011;73032;43.592;1.458;2023-10-09T14:42:25;3.80;;;1.80;;
65583;SDS011;73032;43.592;1.458;2023-10-09T14:44:54;4.40;;;1.92;;
65583;SDS011;73032;43.592;1.458;2023-10-09T14:47:22;4.90;;;2.35;;
65583;SDS011;73032;43.592;1.458;2023-10-09T14:49:49;3.60;;;2.10;;
65583;SDS011;73032;43.592;1.458;2023-10-09T14:52:16;3.65;;;2.05;;
65583;SDS011;73032;43.592;1.458;2023-10-09T14:54:43;3.92;;;2.13;;
65583;SDS011;73032;43.592;1.458;2023-10-09T14:57:13;3.40;;;2.10;;
65583;SDS011;73032;43.592;1.458;2023-10-09T14:59:41;3.63;;;1.95;;
65583;SDS011;73032;43.592;1.458;2023-10-09T15:02:10;4.18;;;1.90;;
65583;SDS011;73032;43.592;1.458;2023-10-09T15:04:39;3.35;;;1.90;;
65583;SDS011;73032;43.592;1.458;2023-10-09T15:07:06;4.82;;;2.40;;
65583;SDS011;73032;43.592;1.458;2023-10-09T15:09:33;4.57;;;1.73;;
65583;SDS011;73032;43.592;1.458;2023-10-09T15:14:32;3.70;;;2.10;;
65583;SDS011;73032;43.592;1.458;2023-10-09T15:17:00;4.82;;;2.10;;
65583;SDS011;73032;43.592;1.458;2023-10-09T15:19:29;3.58;;;1.70;;
65583;SDS011;73032;43.592;1.458;2023-10-09T15:21:58;4.00;;;1.80;;
65583;SDS011;73032;43.592;1.458;2023-10-09T15:24:26;4.00;;;1.80;;
65583;SDS011;73032;43.592;1.458;2023-10-09T15:26:54;5.38;;;1.95;;
65583;SDS011;73032;43.592;1.458;2023-10-09T15:29:26;5.40;;;2.08;;
65583;SDS011;73032;43.592;1.458;2023-10-09T15:31:55;4.00;;;1.90;;
65583;SDS011;73032;43.592;1.458;2023-10-09T15:34:22;2.95;;;1.67;;
65583;SDS011;73032;43.592;1.458;2023-10-09T15:36:51;3.40;;;1.80;;
65583;SDS011;73032;43.592;1.458;2023-10-09T15:39:20;2.63;;;1.50;;
65583;SDS011;73032;43.592;1.458;2023-10-09T15:41:46;3.65;;;1.85;;
65583;SDS011;73032;43.592;1.458;2023-10-09T15:44:13;3.80;;;2.00;;
65583;SDS011;73032;43.592;1.458;2023-10-09T15:46:40;3.08;;;1.90;;
65583;SDS011;73032;43.592;1.458;2023-10-09T15:49:09;4.05;;;1.90;;
65583;SDS011;73032;43.592;1.458;2023-10-09T15:51:39;4.15;;;2.20;;
65583;SDS011;73032;43.592;1.458;2023-10-09T15:54:06;4.20;;;1.92;;
65583;SDS011;73032;43.592;1.458;2023-10-09T15:56:37;5.18;;;1.80;;
65583;SDS011;73032;43.592;1.458;2023-10-09T15:59:14;7.32;;;1.95;;
65583;SDS011;73032;43.592;1.458;2023-10-09T16:01:43;3.92;;;1.77;;
65583;SDS011;73032;43.592;1.458;2023-10-09T16:04:10;3.58;;;1.75;;
65583;SDS011;73032;43.592;1.458;2023-10-09T16:06:37;6.65;;;2.10;;
65583;SDS011;73032;43.592;1.458;2023-10-09T16:09:07;3.40;;;1.77;;
65583;SDS011;73032;43.592;1.458;2023-10-09T16:11:38;5.07;;;1.70;;
65583;SDS011;73032;43.592;1.458;2023-10-09T16:14:06;5.45;;;2.00;;
65583;SDS011;73032;43.592;1.458;2023-10-09T16:19:11;6.63;;;2.22;;
65583;SDS011;73032;43.592;1.458;2023-10-09T16:21:38;3.67;;;1.73;;